• Join FlightAware (Why Join?)
  • Login
  • US Flag 
06:28AM EDT


 

Airport Tracker/Info


-or-


 

Live Flight TrackerFlight Track Log ✈ UCA3598 ✈ 27-Sep-2013 ✈ KIAD - KBGM

Flight Track Log - Related Links

Times and Time Zones

All times are in EDT time to prevent confusion due to time zone crossing. See the UCA3598 flight status page for this flight to view local times or setup timezone preferences in your user account.

Time Position Orientation Groundspeed Altitude Reporting Facility
EDT Latitude Longitude Course Direction KTS MPH feet Rate Location/Type
10:19PM 38.9833 -77.4667 North 161 185 2,300  Level Potomac TRACON
10:20PM 39.0167 -77.4833 339° North 166 191 3,600 1,320 Climbing Potomac TRACON
10:21PM 39.0667 -77.5167 333° Northwest 186 214 5,000 1,380 Climbing Potomac TRACON
10:22PM 39.1167 -77.5333 346° North 187 215 6,400 1,320 Climbing Potomac TRACON
10:24PM 39.3160 -77.3001 North  Level Estimated
10:24PM 39.2108 -77.5122 10° North 194 223 8,800  Level Washington Center
10:25PM 39.3774 -77.2733 North  Level Estimated
10:25PM 39.2650 -77.5056 North 199 229 10,200  Level Washington Center
10:26PM 39.3172 -77.4989 North 199 229 11,700 1,380 Climbing Washington Center
10:27PM 39.3717 -77.4922 North 199 229 13,000 1,320 Climbing Washington Center
10:29PM 39.4658 -77.4811 North 198 228 15,400 1,320 Climbing New York Center
10:30PM 39.5206 -77.4728 North 198 228 16,700 1,260 Climbing New York Center
10:31PM 39.5689 -77.4667 North 198 228 18,000 1,020 Climbing New York Center
10:32PM 39.6167 -77.4361 26° Northeast 181 208 18,800 480 Climbing New York Center
10:33PM 39.6725 -77.4064 22° Northeast 179 206 19,000 60 Climbing New York Center
10:34PM 39.7242 -77.3761 24° Northeast 208 239 19,000  Level New York Center
10:35PM 39.7928 -77.3419 21° North 228 262 19,000  Level New York Center
10:36PM 39.8489 -77.3094 24° Northeast 233 268 19,000  Level New York Center
10:37PM 39.9197 -77.2728 22° Northeast 239 275 19,000  Level New York Center
10:38PM 39.9756 -77.2428 22° Northeast 239 275 19,000  Level New York Center
10:39PM 40.0444 -77.2031 24° Northeast 239 275 19,000  Level New York Center
10:40PM 40.1022 -77.1758 20° North 239 275 19,000  Level New York Center
10:41PM 40.1711 -77.1358 24° Northeast 239 275 19,000  Level New York Center
10:42PM 40.2314 -77.1006 24° Northeast 239 275 19,000  Level New York Center
10:43PM 40.2936 -77.0683 22° Northeast 239 275 19,000  Level New York Center
10:44PM 40.3581 -77.0331 23° Northeast 239 275 19,000  Level New York Center
10:45PM 40.4222 -77.0008 21° North 239 275 19,000  Level New York Center
10:46PM 40.4844 -76.9656 23° Northeast 239 275 19,000  Level New York Center
10:47PM 40.5489 -76.9303 23° Northeast 239 275 19,000  Level New York Center
10:48PM 40.6111 -76.8950 23° Northeast 239 275 19,000  Level New York Center
10:49PM 40.6714 -76.8592 24° Northeast 239 275 19,000  Level New York Center
10:50PM 40.7358 -76.8239 23° Northeast 239 275 19,000  Level New York Center
10:51PM 40.8000 -76.7883 23° Northeast 239 275 19,000  Level New York Center
10:52PM 40.8622 -76.7556 22° Northeast 239 275 19,000  Level New York Center
10:53PM 40.9264 -76.7197 23° Northeast 239 275 19,000  Level New York Center
10:54PM 40.9889 -76.6814 25° Northeast 239 275 19,000  Level New York Center
10:55PM 41.0447 -76.6478 24° Northeast 239 275 19,000  Level New York Center
10:56PM 41.1153 -76.6097 22° Northeast 239 275 19,000  Level New York Center
10:57PM 41.1797 -76.5711 24° Northeast 239 275 19,000  Level New York Center
10:58PM 41.2417 -76.5378 22° Northeast 239 275 19,000  Level New York Center
10:59PM 41.3017 -76.5042 23° Northeast 239 275 19,000  Level New York Center
11:00PM 41.3658 -76.4683 23° Northeast 239 275 19,000  Level New York Center
11:01PM 41.4367 -76.4272 24° Northeast 239 275 19,000  Level New York Center
11:02PM 41.5008 -76.3911 23° Northeast 239 275 19,000  Level New York Center
11:03PM 41.5650 -76.3547 23° Northeast 239 275 19,000 -600 Level New York Center
11:04PM 41.6250 -76.3211 23° Northeast 239 275 17,900 -1,260 Descending New York Center
11:05PM 41.6936 -76.2794 24° Northeast 249 287 16,500 -1,800 Descending New York Center
11:06PM 41.7664 -76.2381 23° Northeast 256 295 14,300 -2,100 Descending New York Center
11:07PM 41.8367 -76.1994 22° Northeast 262 302 12,400 -1,980 Descending New York Center
11:08PM 41.9031 -76.1603 24° Northeast 262 302 10,400 -1,800 Descending New York Center
11:09PM 41.9608 -76.1258 24° Northeast 257 296 8,800 -1,740 Descending New York Center
11:10PM 42.0189 -76.0831 29° Northeast 257 296 6,900 -1,980 Descending New York Center
11:11PM 42.0614 -76.0194 48° Northeast 231 266 4,900 -1,740 Descending New York Center
11:12PM 42.0992 -75.9667 46° Northeast 211 243 3,500 -900 Descending New York Center
11:13PM 42.1317 -75.9386 33° Northeast 171 197 3,100 -600 Descending New York Center
11:14PM 42.1667 -75.9467 350° North 127 146 2,400 -540 Descending New York Center
11:15PM 42.2000 -75.9439 North 122 140 2,100 3,240 Descending New York Center
11:16PM 42.2314 -75.9381 North 122 140 9,000 3,480 Climbing New York Center
11:17PM 42.2628 -75.9347 North 122 140 9,000  Level New York Center
11:18PM 42.2942 -75.9289 North 122 140 9,000  Level New York Center
11:19PM 42.3069 -75.9269 North 122 140 9,000  Level New York Center
11:21PM 42.3069 -75.9269 324° Northwest 122 140 9,000  Level New York Center